Time;durP1;ratioP1;P1;durP2;ratioP2;P2;SDS_P1;SDS_P2;PMS_P1;PMS_P2;Temp;Humidity;BMP_temperature;BMP_pressure;BME280_temperature;BME280_humidity;BME280_pressure;Samples;Min_cycle;Max_cycle;Signal;HPM_P1;HPM_P2
2023/03/10 00:01:08;;;;;;;7.37;6.57;;;;;;;;;;5032418;28;20457;-46
2023/03/10 00:03:34;;;;;;;7.03;6.33;;;;;;;;;;5032312;28;20518;-46
2023/03/10 00:06:01;;;;;;;6.63;5.93;;;;;;;;;;5032282;28;20471;-46
2023/03/10 00:08:27;;;;;;;7.13;6.43;;;;;;;;;;5032609;28;20204;-46
2023/03/10 00:10:53;;;;;;;7.60;6.70;;;;;;;;;;5032249;28;21011;-45
2023/03/10 00:13:20;;;;;;;6.90;6.20;;;;;;;;;;5032214;28;20423;-45
2023/03/10 00:15:47;;;;;;;6.93;6.23;;;;;;;;;;5032231;28;20205;-46
2023/03/10 00:18:13;;;;;;;7.63;6.60;;;;;;;;;;5032488;28;20482;-45
2023/03/10 00:20:39;;;;;;;6.97;6.23;;;;;;;;;;5032298;28;20478;-45
2023/03/10 00:23:05;;;;;;;6.93;5.83;;;;;;;;;;5032063;28;20669;-46
2023/03/10 00:25:31;;;;;;;8.07;7.27;;;;;;;;;;5032003;28;20575;-45
2023/03/10 00:27:57;;;;;;;6.70;6.00;;;;;;;;;;5032230;28;20439;-45
2023/03/10 00:30:25;;;;;;;7.10;6.40;;;;;;;;;;5032130;28;20439;-45
2023/03/10 00:32:51;;;;;;;7.53;6.73;;;;;;;;;;5031923;28;20212;-46
2023/03/10 00:35:17;;;;;;;6.90;6.20;;;;;;;;;;5031891;28;20447;-46
2023/03/10 00:37:43;;;;;;;8.00;7.20;;;;;;;;;;5031970;28;20315;-46
2023/03/10 00:40:11;;;;;;;7.37;6.70;;;;;;;;;;5031845;28;20576;-45
2023/03/10 00:42:36;;;;;;;7.93;7.07;;;;;;;;;;5031967;28;20211;-45
2023/03/10 00:45:03;;;;;;;8.43;7.33;;;;;;;;;;5031723;28;20522;-45
2023/03/10 00:47:30;;;;;;;7.90;7.10;;;;;;;;;;5032335;28;20243;-45
2023/03/10 00:49:56;;;;;;;7.37;6.60;;;;;;;;;;5032009;28;20937;-45
2023/03/10 00:52:22;;;;;;;7.63;6.33;;;;;;;;;;5032010;28;20439;-45
2023/03/10 00:54:48;;;;;;;6.97;6.27;;;;;;;;;;5031869;28;20270;-46
2023/03/10 00:57:14;;;;;;;7.43;6.73;;;;;;;;;;5031451;28;20311;-46
2023/03/10 00:59:40;;;;;;;7.30;6.60;;;;;;;;;;5031848;28;20875;-46
2023/03/10 01:02:06;;;;;;;7.00;6.30;;;;;;;;;;5031506;28;20267;-46
2023/03/10 01:04:34;;;;;;;7.03;6.33;;;;;;;;;;5031535;28;20273;-46
2023/03/10 01:07:00;;;;;;;6.97;6.27;;;;;;;;;;5031580;28;20216;-47
2023/03/10 01:09:26;;;;;;;6.67;5.97;;;;;;;;;;5031700;28;20448;-46
2023/03/10 01:11:52;;;;;;;6.63;5.93;;;;;;;;;;5031566;28;20201;-46
2023/03/10 01:14:17;;;;;;;6.30;5.70;;;;;;;;;;5031512;28;20651;-46
2023/03/10 01:16:44;;;;;;;7.27;6.33;;;;;;;;;;5031661;28;20258;-47
2023/03/10 01:19:09;;;;;;;6.67;5.70;;;;;;;;;;5031672;28;20256;-47
2023/03/10 01:21:38;;;;;;;6.80;6.10;;;;;;;;;;5031573;28;20804;-47
2023/03/10 01:24:05;;;;;;;6.53;5.83;;;;;;;;;;5031424;28;20699;-47
2023/03/10 01:26:31;;;;;;;6.00;5.50;;;;;;;;;;5031414;28;20933;-47
2023/03/10 01:28:57;;;;;;;6.63;5.93;;;;;;;;;;5031495;28;20428;-46
2023/03/10 01:31:23;;;;;;;6.80;6.07;;;;;;;;;;5031469;28;20439;-46
2023/03/10 01:33:49;;;;;;;6.63;5.90;;;;;;;;;;5031424;28;20447;-46
2023/03/10 01:36:16;;;;;;;6.17;5.57;;;;;;;;;;5031372;28;20203;-46
2023/03/10 01:38:43;;;;;;;6.03;5.43;;;;;;;;;;5031323;28;20991;-46
2023/03/10 01:41:10;;;;;;;5.40;4.90;;;;;;;;;;5031199;28;20440;-46
2023/03/10 01:43:36;;;;;;;6.90;6.20;;;;;;;;;;5031326;28;20435;-46
2023/03/10 01:46:20;;;;;;;5.60;5.00;;;;;;;;;;5031141;28;20451;-45
2023/03/10 01:48:46;;;;;;;5.53;5.03;;;;;;;;;;5030441;28;20785;-46
2023/03/10 01:51:12;;;;;;;6.30;5.70;;;;;;;;;;5031205;28;20456;-46
2023/03/10 01:53:39;;;;;;;5.07;4.57;;;;;;;;;;5031230;28;20861;-46
2023/03/10 01:56:06;;;;;;;6.30;5.70;;;;;;;;;;5031197;28;20486;-46
2023/03/10 01:58:33;;;;;;;5.70;5.10;;;;;;;;;;5031157;28;20492;-46
2023/03/10 02:00:59;;;;;;;5.60;5.10;;;;;;;;;;5030998;28;20466;-45
2023/03/10 02:03:26;;;;;;;5.23;4.70;;;;;;;;;;5031065;28;20479;-46
2023/03/10 02:05:54;;;;;;;5.17;4.63;;;;;;;;;;5030845;28;20296;-46
2023/03/10 02:08:22;;;;;;;5.63;5.03;;;;;;;;;;5031126;28;20875;-46
2023/03/10 02:10:49;;;;;;;4.93;4.53;;;;;;;;;;5033644;28;20457;-46
2023/03/10 02:13:16;;;;;;;5.33;4.83;;;;;;;;;;5033532;28;20984;-46
2023/03/10 02:15:43;;;;;;;4.90;4.50;;;;;;;;;;5033687;28;20439;-46
2023/03/10 02:18:10;;;;;;;4.80;4.27;;;;;;;;;;5034021;28;20481;-46
2023/03/10 02:20:40;;;;;;;5.17;4.67;;;;;;;;;;5034452;28;20436;-46
2023/03/10 02:23:06;;;;;;;5.20;4.70;;;;;;;;;;5034344;28;20439;-46
2023/03/10 02:25:37;;;;;;;4.90;4.50;;;;;;;;;;5034336;28;20466;-46
2023/03/10 02:28:05;;;;;;;4.83;4.33;;;;;;;;;;5034203;28;20450;-47
2023/03/10 02:30:32;;;;;;;4.90;4.40;;;;;;;;;;5034189;28;20436;-47
2023/03/10 02:33:01;;;;;;;4.40;4.00;;;;;;;;;;5034250;28;20440;-46
2023/03/10 02:35:27;;;;;;;4.77;4.30;;;;;;;;;;5034342;28;20494;-46
2023/03/10 02:37:53;;;;;;;4.33;3.93;;;;;;;;;;5034146;28;20468;-46
2023/03/10 02:40:28;;;;;;;5.10;4.33;;;;;;;;;;5034046;28;20862;-47
2023/03/10 02:42:54;;;;;;;4.70;4.30;;;;;;;;;;5034118;28;20443;-46
2023/03/10 02:45:22;;;;;;;4.53;4.13;;;;;;;;;;5033928;28;20907;-46
2023/03/10 02:47:48;;;;;;;4.63;4.23;;;;;;;;;;5033823;28;20990;-46
2023/03/10 02:50:15;;;;;;;4.70;4.30;;;;;;;;;;5033803;28;20436;-46
2023/03/10 02:52:44;;;;;;;5.30;3.97;;;;;;;;;;5033959;28;20201;-45
2023/03/10 02:55:14;;;;;;;4.60;4.20;;;;;;;;;;5033672;28;20968;-46
2023/03/10 02:57:40;;;;;;;4.50;4.10;;;;;;;;;;5034079;28;20480;-45
2023/03/10 03:00:07;;;;;;;4.63;4.23;;;;;;;;;;5033689;28;20934;-47
2023/03/10 03:02:34;;;;;;;4.03;3.73;;;;;;;;;;5033821;28;20196;-45
2023/03/10 03:05:00;;;;;;;4.33;3.93;;;;;;;;;;5033319;28;20502;-45
2023/03/10 03:07:27;;;;;;;4.13;3.50;;;;;;;;;;5033589;28;20483;-46
2023/03/10 03:09:53;;;;;;;3.23;2.97;;;;;;;;;;5033482;28;20205;-45
2023/03/10 03:12:19;;;;;;;3.40;3.10;;;;;;;;;;5033430;28;20462;-46
2023/03/10 03:14:45;;;;;;;4.23;3.60;;;;;;;;;;5033354;28;20436;-46
2023/03/10 03:17:11;;;;;;;2.97;2.77;;;;;;;;;;5033343;28;20629;-45
2023/03/10 03:19:39;;;;;;;3.27;2.97;;;;;;;;;;5032365;28;20247;-46
2023/03/10 03:22:05;;;;;;;3.37;3.07;;;;;;;;;;5033101;28;20953;-46
2023/03/10 03:24:31;;;;;;;3.83;3.03;;;;;;;;;;5033106;28;20952;-46
2023/03/10 03:26:57;;;;;;;2.80;2.43;;;;;;;;;;5033157;28;20436;-45
2023/03/10 03:29:23;;;;;;;2.53;2.33;;;;;;;;;;5033209;28;20511;-45
2023/03/10 03:31:49;;;;;;;2.83;2.63;;;;;;;;;;5033372;28;20235;-46
2023/03/10 03:34:15;;;;;;;2.57;2.37;;;;;;;;;;5032938;28;20439;-45
2023/03/10 03:36:42;;;;;;;2.43;2.23;;;;;;;;;;5033150;28;20446;-45
2023/03/10 03:39:08;;;;;;;3.10;2.57;;;;;;;;;;5032996;28;20463;-46
2023/03/10 03:41:34;;;;;;;2.40;2.20;;;;;;;;;;5032954;28;20433;-46
2023/03/10 03:44:00;;;;;;;2.60;2.40;;;;;;;;;;5032810;28;20991;-46
2023/03/10 03:46:26;;;;;;;2.33;2.20;;;;;;;;;;5033020;28;20200;-46
2023/03/10 03:48:52;;;;;;;2.33;2.13;;;;;;;;;;5033026;28;20424;-46
2023/03/10 03:51:18;;;;;;;1.70;1.60;;;;;;;;;;5032737;28;20514;-46
2023/03/10 03:53:46;;;;;;;2.00;1.90;;;;;;;;;;5032757;28;20197;-46
2023/03/10 03:56:12;;;;;;;1.80;1.70;;;;;;;;;;5032668;28;20205;-47
2023/03/10 03:58:38;;;;;;;2.00;1.90;;;;;;;;;;5032694;28;21088;-46
2023/03/10 04:01:04;;;;;;;2.20;2.10;;;;;;;;;;5032590;28;20212;-46
2023/03/10 04:03:30;;;;;;;2.00;1.90;;;;;;;;;;5032403;28;20240;-46
2023/03/10 04:05:56;;;;;;;1.90;1.80;;;;;;;;;;5032487;28;20431;-46
2023/03/10 04:08:22;;;;;;;1.97;1.87;;;;;;;;;;5032465;28;20276;-44
2023/03/10 04:10:52;;;;;;;1.70;1.60;;;;;;;;;;5032291;28;20279;-46
2023/03/10 04:13:18;;;;;;;1.80;1.70;;;;;;;;;;5032216;28;20455;-46
2023/03/10 04:15:44;;;;;;;1.70;1.60;;;;;;;;;;5032374;28;20440;-46
2023/03/10 04:18:11;;;;;;;1.80;1.70;;;;;;;;;;5032133;28;20533;-45
2023/03/10 04:20:37;;;;;;;1.87;1.70;;;;;;;;;;5032121;28;20918;-45
2023/03/10 04:23:03;;;;;;;1.80;1.70;;;;;;;;;;5032024;28;20676;-45
2023/03/10 04:25:29;;;;;;;1.70;1.60;;;;;;;;;;5032073;28;20899;-47
2023/03/10 04:27:57;;;;;;;1.80;1.70;;;;;;;;;;5032126;28;20632;-44
2023/03/10 04:30:28;;;;;;;1.67;1.57;;;;;;;;;;5032127;28;20451;-45
2023/03/10 04:32:56;;;;;;;3.80;1.60;;;;;;;;;;5031789;28;20472;-45
2023/03/10 04:35:22;;;;;;;1.67;1.57;;;;;;;;;;5031870;28;21001;-45
2023/03/10 04:37:48;;;;;;;1.70;1.60;;;;;;;;;;5032096;28;20558;-45
2023/03/10 04:40:14;;;;;;;2.10;1.73;;;;;;;;;;5031745;28;20212;-45
2023/03/10 04:42:41;;;;;;;2.60;1.70;;;;;;;;;;5031898;28;20561;-45
2023/03/10 04:45:09;;;;;;;1.60;1.50;;;;;;;;;;5031872;28;20442;-46
2023/03/10 04:47:35;;;;;;;1.60;1.50;;;;;;;;;;5031956;28;20827;-46
2023/03/10 04:50:01;;;;;;;1.63;1.53;;;;;;;;;;5031664;28;20501;-46
2023/03/10 04:52:27;;;;;;;1.50;1.40;;;;;;;;;;5031923;28;20439;-45
2023/03/10 04:54:53;;;;;;;1.70;1.60;;;;;;;;;;5031684;28;20566;-46
2023/03/10 04:57:19;;;;;;;1.60;1.50;;;;;;;;;;5031493;28;20272;-45
2023/03/10 04:59:45;;;;;;;2.50;1.60;;;;;;;;;;5031680;28;20201;-46
2023/03/10 05:02:12;;;;;;;1.50;1.40;;;;;;;;;;5031846;28;20510;-46
2023/03/10 05:04:39;;;;;;;1.60;1.50;;;;;;;;;;5031620;28;20273;-45
2023/03/10 05:07:05;;;;;;;1.50;1.40;;;;;;;;;;5031765;28;20517;-45
2023/03/10 05:09:33;;;;;;;1.50;1.40;;;;;;;;;;5031599;28;20440;-46
2023/03/10 05:11:59;;;;;;;1.53;1.43;;;;;;;;;;5031573;28;20431;-45
2023/03/10 05:14:25;;;;;;;2.20;2.00;;;;;;;;;;5031618;28;20439;-45
2023/03/10 05:16:51;;;;;;;1.90;1.80;;;;;;;;;;5031423;28;20201;-45
2023/03/10 05:19:18;;;;;;;2.10;1.90;;;;;;;;;;5031422;28;20213;-45
2023/03/10 05:21:44;;;;;;;2.07;1.93;;;;;;;;;;5031503;28;20236;-46
2023/03/10 05:24:10;;;;;;;2.20;2.10;;;;;;;;;;5031484;28;20950;-45
2023/03/10 05:26:36;;;;;;;2.50;2.30;;;;;;;;;;5031544;28;20205;-46
2023/03/10 05:29:03;;;;;;;2.40;2.20;;;;;;;;;;5031383;28;20280;-46
2023/03/10 05:31:29;;;;;;;2.43;2.23;;;;;;;;;;5031717;28;20197;-45
2023/03/10 05:33:55;;;;;;;2.10;1.90;;;;;;;;;;5031526;28;20444;-46
2023/03/10 05:36:22;;;;;;;1.87;1.77;;;;;;;;;;5031356;28;20534;-45
2023/03/10 05:38:48;;;;;;;2.20;2.10;;;;;;;;;;5031212;28;20483;-46
2023/03/10 05:41:14;;;;;;;2.80;2.37;;;;;;;;;;5031246;28;20523;-45
2023/03/10 05:43:40;;;;;;;2.50;2.30;;;;;;;;;;5032886;28;20905;-47
2023/03/10 05:46:06;;;;;;;2.37;2.13;;;;;;;;;;5034635;28;20197;-45
2023/03/10 05:48:32;;;;;;;2.70;2.50;;;;;;;;;;5035059;28;20443;-45
2023/03/10 05:50:59;;;;;;;2.20;2.10;;;;;;;;;;5035016;28;20431;-45
2023/03/10 05:53:27;;;;;;;2.57;2.37;;;;;;;;;;5035012;28;20489;-45
2023/03/10 05:55:53;;;;;;;2.30;2.10;;;;;;;;;;5035009;28;20475;-45
2023/03/10 05:58:19;;;;;;;2.80;2.60;;;;;;;;;;5034695;28;20479;-45
2023/03/10 06:00:45;;;;;;;2.43;2.23;;;;;;;;;;5034946;28;20503;-45
2023/03/10 06:03:11;;;;;;;2.70;2.50;;;;;;;;;;5034667;28;20310;-45
2023/03/10 06:05:37;;;;;;;3.20;2.90;;;;;;;;;;5034722;28;20925;-46
2023/03/10 06:08:03;;;;;;;2.30;2.10;;;;;;;;;;5034596;28;20197;-45
2023/03/10 06:10:30;;;;;;;2.83;2.53;;;;;;;;;;5034748;28;20201;-46
2023/03/10 06:12:56;;;;;;;2.70;2.50;;;;;;;;;;5034364;28;20467;-45
2023/03/10 06:15:22;;;;;;;2.50;2.30;;;;;;;;;;5034575;28;20436;-45
2023/03/10 06:17:48;;;;;;;2.53;2.30;;;;;;;;;;5034367;28;20826;-45
2023/03/10 06:20:14;;;;;;;2.40;2.20;;;;;;;;;;5033331;28;20497;-46
2023/03/10 06:22:41;;;;;;;4.07;2.57;;;;;;;;;;5034317;28;20201;-46
2023/03/10 06:25:07;;;;;;;2.50;2.30;;;;;;;;;;5033899;28;20509;-45
2023/03/10 06:27:34;;;;;;;2.57;2.37;;;;;;;;;;5034355;28;20436;-46
2023/03/10 06:30:00;;;;;;;2.43;2.30;;;;;;;;;;5034103;28;20460;-45
2023/03/10 06:32:26;;;;;;;2.47;2.27;;;;;;;;;;5034283;28;20460;-45
2023/03/10 06:34:52;;;;;;;2.60;2.40;;;;;;;;;;5034130;28;20435;-45
2023/03/10 06:37:18;;;;;;;2.57;2.37;;;;;;;;;;5033881;28;20657;-45
2023/03/10 06:39:44;;;;;;;2.50;2.30;;;;;;;;;;5034097;28;20243;-45
2023/03/10 06:42:10;;;;;;;2.17;2.07;;;;;;;;;;5033934;28;20540;-45
2023/03/10 06:44:38;;;;;;;2.50;2.30;;;;;;;;;;5034336;28;20466;-46
2023/03/10 06:47:04;;;;;;;2.50;2.30;;;;;;;;;;5033689;28;20606;-46
2023/03/10 06:49:30;;;;;;;2.47;2.30;;;;;;;;;;5033777;28;20774;-46
2023/03/10 06:51:56;;;;;;;3.07;2.67;;;;;;;;;;5033944;28;20490;-46
2023/03/10 06:54:23;;;;;;;2.20;2.10;;;;;;;;;;5033397;28;20440;-46
2023/03/10 06:56:49;;;;;;;2.40;2.20;;;;;;;;;;5033791;28;20905;-47
2023/03/10 06:59:15;;;;;;;2.07;1.97;;;;;;;;;;5033593;28;21043;-46
2023/03/10 07:01:43;;;;;;;2.30;2.10;;;;;;;;;;5033794;28;20836;-46
2023/03/10 07:04:09;;;;;;;2.83;2.20;;;;;;;;;;5033428;28;20546;-46
2023/03/10 07:06:35;;;;;;;4.13;2.30;;;;;;;;;;5033571;28;20906;-46
2023/03/10 07:09:02;;;;;;;2.50;2.30;;;;;;;;;;5033409;28;20454;-47
2023/03/10 07:11:28;;;;;;;2.40;2.20;;;;;;;;;;5033714;28;20809;-46
2023/03/10 07:13:54;;;;;;;2.60;2.40;;;;;;;;;;5033951;28;20442;-46
2023/03/10 07:16:20;;;;;;;2.30;2.10;;;;;;;;;;5033272;28;20558;-47
2023/03/10 07:18:47;;;;;;;2.47;2.27;;;;;;;;;;5033312;28;21016;-46
2023/03/10 07:21:15;;;;;;;2.23;2.10;;;;;;;;;;5033236;28;20518;-46
2023/03/10 07:23:41;;;;;;;2.47;2.20;;;;;;;;;;5033689;28;20447;-46
2023/03/10 07:26:07;;;;;;;1.90;1.80;;;;;;;;;;5033055;28;20531;-46
2023/03/10 07:28:34;;;;;;;2.50;2.30;;;;;;;;;;5033272;28;20467;-46
2023/03/10 07:31:01;;;;;;;2.30;2.10;;;;;;;;;;5033331;28;20443;-46
2023/03/10 07:33:27;;;;;;;2.13;2.00;;;;;;;;;;5033269;28;20845;-46
2023/03/10 07:35:55;;;;;;;2.20;2.07;;;;;;;;;;5033366;28;20933;-46
2023/03/10 07:38:21;;;;;;;2.10;1.97;;;;;;;;;;5032838;28;20248;-46
2023/03/10 07:40:47;;;;;;;2.07;1.97;;;;;;;;;;5032956;28;20436;-46
2023/03/10 07:43:12;;;;;;;2.30;2.10;;;;;;;;;;5033108;28;20690;-45
2023/03/10 07:45:39;;;;;;;2.00;1.80;;;;;;;;;;5033351;28;20200;-45
2023/03/10 07:48:05;;;;;;;2.10;2.00;;;;;;;;;;5032622;28;20196;-45
2023/03/10 07:50:31;;;;;;;1.90;1.80;;;;;;;;;;5032725;28;20438;-45
2023/03/10 07:52:58;;;;;;;1.97;1.80;;;;;;;;;;5032853;28;20444;-46
2023/03/10 07:55:24;;;;;;;2.03;1.90;;;;;;;;;;5032622;28;20284;-46
2023/03/10 07:57:50;;;;;;;1.97;1.87;;;;;;;;;;5032492;28;20965;-46
2023/03/10 08:00:17;;;;;;;2.20;2.10;;;;;;;;;;5032558;28;20193;-47
2023/03/10 08:02:43;;;;;;;2.03;1.93;;;;;;;;;;5032558;28;20224;-47
2023/03/10 08:05:10;;;;;;;2.17;2.00;;;;;;;;;;5032433;28;20938;-46
2023/03/10 08:07:36;;;;;;;1.80;1.70;;;;;;;;;;5031881;28;20610;-47
2023/03/10 08:10:04;;;;;;;1.83;1.73;;;;;;;;;;5032225;28;20486;-46
2023/03/10 08:12:30;;;;;;;1.97;1.87;;;;;;;;;;5032233;28;20444;-46
2023/03/10 08:14:56;;;;;;;2.20;2.00;;;;;;;;;;5032344;28;20510;-46
2023/03/10 08:17:29;;;;;;;2.27;2.07;;;;;;;;;;5032250;28;20215;-47
2023/03/10 08:19:55;;;;;;;1.90;1.80;;;;;;;;;;5032330;28;20996;-46
2023/03/10 08:22:21;;;;;;;2.00;1.90;;;;;;;;;;5032176;28;20436;-47
2023/03/10 08:24:47;;;;;;;2.67;2.30;;;;;;;;;;5032270;28;20204;-46
2023/03/10 08:27:14;;;;;;;2.00;1.90;;;;;;;;;;5032211;28;20240;-47
2023/03/10 08:29:40;;;;;;;1.90;1.80;;;;;;;;;;5032336;28;20296;-46
2023/03/10 08:32:06;;;;;;;2.00;1.90;;;;;;;;;;5031820;28;20554;-46
2023/03/10 08:34:33;;;;;;;1.87;1.77;;;;;;;;;;5032043;28;20204;-46
2023/03/10 08:36:59;;;;;;;2.13;1.93;;;;;;;;;;5032161;28;20534;-46
2023/03/10 08:39:26;;;;;;;1.60;1.50;;;;;;;;;;5032226;28;20486;-46
2023/03/10 08:41:52;;;;;;;2.20;2.00;;;;;;;;;;5032057;28;20435;-45
2023/03/10 08:44:19;;;;;;;2.37;2.17;;;;;;;;;;5031901;28;20446;-46
2023/03/10 08:46:46;;;;;;;2.00;1.90;;;;;;;;;;5031863;28;20204;-46
2023/03/10 08:49:13;;;;;;;2.33;2.13;;;;;;;;;;5031885;28;20511;-46
2023/03/10 08:51:39;;;;;;;2.33;2.13;;;;;;;;;;5032008;28;20745;-46
2023/03/10 08:54:06;;;;;;;2.77;2.57;;;;;;;;;;5031685;28;20427;-46
2023/03/10 08:56:31;;;;;;;2.60;2.40;;;;;;;;;;5031729;28;20432;-45
2023/03/10 08:58:59;;;;;;;2.70;2.50;;;;;;;;;;5031796;28;21008;-45
2023/03/10 09:01:27;;;;;;;2.63;2.43;;;;;;;;;;5031882;28;20235;-45
2023/03/10 09:03:53;;;;;;;2.17;2.03;;;;;;;;;;5031409;28;20479;-46
2023/03/10 09:06:19;;;;;;;2.77;2.57;;;;;;;;;;5031402;28;20527;-45
2023/03/10 09:08:47;;;;;;;2.33;2.13;;;;;;;;;;5031545;28;20438;-45
2023/03/10 09:11:14;;;;;;;2.20;2.00;;;;;;;;;;5031715;28;20515;-45
2023/03/10 09:13:40;;;;;;;2.40;2.20;;;;;;;;;;5031598;28;20942;-45
2023/03/10 09:16:08;;;;;;;2.50;2.30;;;;;;;;;;5031343;28;20535;-46
2023/03/10 09:18:35;;;;;;;2.37;2.17;;;;;;;;;;5034619;28;20467;-46
2023/03/10 09:21:01;;;;;;;2.40;2.20;;;;;;;;;;5035466;28;20468;-46
2023/03/10 09:23:27;;;;;;;2.40;2.20;;;;;;;;;;5035526;28;20435;-46
2023/03/10 09:25:53;;;;;;;2.50;2.30;;;;;;;;;;5035483;28;20524;-46
2023/03/10 09:28:19;;;;;;;2.40;2.20;;;;;;;;;;5035283;28;20523;-46
2023/03/10 09:30:46;;;;;;;2.60;2.40;;;;;;;;;;5035429;28;20220;-46
2023/03/10 09:33:14;;;;;;;2.23;2.13;;;;;;;;;;5035282;28;20794;-46
2023/03/10 09:35:42;;;;;;;2.50;2.30;;;;;;;;;;5035400;28;20932;-46
2023/03/10 09:38:08;;;;;;;2.63;2.43;;;;;;;;;;5035096;28;20479;-46
2023/03/10 09:40:34;;;;;;;2.10;2.00;;;;;;;;;;5035170;28;20471;-46
2023/03/10 09:43:01;;;;;;;3.00;2.70;;;;;;;;;;5035139;28;20531;-46
2023/03/10 09:45:34;;;;;;;2.70;2.50;;;;;;;;;;5035093;28;20795;-46
2023/03/10 09:48:08;;;;;;;2.40;2.20;;;;;;;;;;5034962;28;20439;-46
2023/03/10 09:50:35;;;;;;;2.83;2.63;;;;;;;;;;5035280;28;20497;-46
2023/03/10 09:53:06;;;;;;;2.80;2.60;;;;;;;;;;5035057;28;20439;-46
2023/03/10 09:55:33;;;;;;;3.20;2.90;;;;;;;;;;5034828;28;20451;-46
2023/03/10 09:57:59;;;;;;;2.70;2.50;;;;;;;;;;5034808;28;20482;-46
2023/03/10 10:00:29;;;;;;;2.70;2.50;;;;;;;;;;5034892;28;20473;-47
2023/03/10 10:02:59;;;;;;;2.83;2.63;;;;;;;;;;5034895;28;20474;-46
2023/03/10 10:05:26;;;;;;;3.13;2.70;;;;;;;;;;5034747;28;20515;-46
2023/03/10 10:07:54;;;;;;;3.40;3.10;;;;;;;;;;5034772;28;20435;-46
2023/03/10 10:10:24;;;;;;;2.90;2.70;;;;;;;;;;5034482;28;20495;-46
2023/03/10 10:12:52;;;;;;;2.70;2.50;;;;;;;;;;5034423;28;21016;-46
2023/03/10 10:15:21;;;;;;;3.03;2.73;;;;;;;;;;5034415;28;20456;-46
2023/03/10 10:17:54;;;;;;;2.50;2.30;;;;;;;;;;5034469;28;20472;-45
2023/03/10 10:20:22;;;;;;;3.27;2.60;;;;;;;;;;5034384;28;20446;-45
2023/03/10 10:22:48;;;;;;;2.93;2.70;;;;;;;;;;5034253;28;20493;-46
2023/03/10 10:25:16;;;;;;;2.70;2.50;;;;;;;;;;5034089;28;20937;-46
2023/03/10 10:27:44;;;;;;;2.70;2.50;;;;;;;;;;5034397;28;20482;-47
2023/03/10 10:30:31;;;;;;;2.67;2.47;;;;;;;;;;5033716;28;20442;-46
2023/03/10 10:32:57;;;;;;;3.00;2.80;;;;;;;;;;5034291;28;20440;-46
2023/03/10 10:35:24;;;;;;;3.20;3.00;;;;;;;;;;5034225;28;20925;-46
2023/03/10 10:37:57;;;;;;;3.10;2.90;;;;;;;;;;5034292;28;20476;-45
2023/03/10 10:40:25;;;;;;;3.10;2.90;;;;;;;;;;5033945;28;20527;-46
2023/03/10 10:42:53;;;;;;;2.80;2.60;;;;;;;;;;5034059;28;20841;-45
2023/03/10 10:45:25;;;;;;;3.00;2.80;;;;;;;;;;5033956;28;20443;-46
2023/03/10 10:47:51;;;;;;;2.87;2.67;;;;;;;;;;5033957;28;20440;-45
2023/03/10 10:50:18;;;;;;;3.00;2.70;;;;;;;;;;5033848;28;20447;-45
2023/03/10 10:52:47;;;;;;;3.00;2.80;;;;;;;;;;5034013;28;20876;-47
2023/03/10 10:55:25;;;;;;;3.10;2.80;;;;;;;;;;5033776;28;20432;-46
2023/03/10 10:57:55;;;;;;;2.90;2.70;;;;;;;;;;5033824;28;20574;-47
2023/03/10 11:00:25;;;;;;;3.33;3.03;;;;;;;;;;5033602;28;20468;-46
2023/03/10 11:02:52;;;;;;;3.07;2.80;;;;;;;;;;5033559;28;20945;-46
2023/03/10 11:05:19;;;;;;;3.37;3.07;;;;;;;;;;5033653;28;20493;-46
2023/03/10 11:07:46;;;;;;;2.83;2.63;;;;;;;;;;5033663;28;20926;-46
2023/03/10 11:10:13;;;;;;;2.70;2.50;;;;;;;;;;5033533;28;20571;-46
2023/03/10 11:12:45;;;;;;;2.60;2.40;;;;;;;;;;5033745;28;20489;-46
2023/03/10 11:15:19;;;;;;;3.40;3.10;;;;;;;;;;5033507;28;20440;-46
2023/03/10 11:17:48;;;;;;;2.57;2.37;;;;;;;;;;5033398;28;20558;-46
2023/03/10 11:20:24;;;;;;;3.13;2.93;;;;;;;;;;5033490;28;20440;-46
2023/03/10 11:22:54;;;;;;;2.87;2.67;;;;;;;;;;5033355;28;20440;-46
2023/03/10 11:25:25;;;;;;;2.93;2.73;;;;;;;;;;5033167;28;20450;-46
2023/03/10 11:27:57;;;;;;;2.73;2.53;;;;;;;;;;5033167;28;20941;-46
2023/03/10 11:30:28;;;;;;;3.63;2.77;;;;;;;;;;5033155;28;20439;-46
2023/03/10 11:32:59;;;;;;;2.77;2.57;;;;;;;;;;5033468;28;20443;-46
2023/03/10 11:35:27;;;;;;;2.90;2.70;;;;;;;;;;5033235;28;20428;-46
2023/03/10 11:37:58;;;;;;;2.70;2.50;;;;;;;;;;5032848;28;20491;-46
2023/03/10 11:40:28;;;;;;;2.87;2.47;;;;;;;;;;5032287;28;20505;-46
2023/03/10 11:42:59;;;;;;;2.97;2.73;;;;;;;;;;5032759;28;20509;-47
2023/03/10 11:45:30;;;;;;;2.63;2.43;;;;;;;;;;5032984;28;20431;-47
2023/03/10 11:48:01;;;;;;;2.97;2.67;;;;;;;;;;5032946;28;20440;-45
2023/03/10 11:50:30;;;;;;;2.90;2.70;;;;;;;;;;5032757;28;20444;-46
2023/03/10 11:52:59;;;;;;;3.60;2.80;;;;;;;;;;5032873;28;20447;-46
2023/03/10 11:55:25;;;;;;;3.40;3.10;;;;;;;;;;5032728;28;20470;-46
2023/03/10 11:57:55;;;;;;;3.13;2.83;;;;;;;;;;5032618;28;20475;-46
2023/03/10 12:00:22;;;;;;;3.00;2.80;;;;;;;;;;5032376;28;20464;-46
2023/03/10 12:02:57;;;;;;;3.90;3.13;;;;;;;;;;5032289;28;20804;-48
2023/03/10 12:05:24;;;;;;;3.90;3.40;;;;;;;;;;5032325;28;20458;-46
2023/03/10 12:07:52;;;;;;;3.07;2.83;;;;;;;;;;5032602;28;20824;-46
2023/03/10 12:10:20;;;;;;;2.90;2.70;;;;;;;;;;5032242;28;20445;-46
2023/03/10 12:12:47;;;;;;;3.13;2.83;;;;;;;;;;5032389;28;20440;-46
2023/03/10 12:15:16;;;;;;;3.40;3.10;;;;;;;;;;5032248;28;20439;-46
2023/03/10 12:17:44;;;;;;;3.50;3.20;;;;;;;;;;5032331;28;20960;-46
2023/03/10 12:20:25;;;;;;;2.90;2.70;;;;;;;;;;5032311;28;21012;-46
2023/03/10 12:22:51;;;;;;;3.50;3.20;;;;;;;;;;5032279;28;20458;-46
2023/03/10 12:25:39;;;;;;;3.30;3.00;;;;;;;;;;5031955;28;20896;-47
2023/03/10 12:28:12;;;;;;;3.50;3.20;;;;;;;;;;5032063;28;20414;-47
2023/03/10 12:30:47;;;;;;;3.40;3.10;;;;;;;;;;5032026;28;20494;-46
2023/03/10 12:33:28;;;;;;;3.10;2.90;;;;;;;;;;5032002;28;20501;-46
2023/03/10 12:35:57;;;;;;;4.17;3.77;;;;;;;;;;5031316;28;20542;-47
2023/03/10 12:38:31;;;;;;;3.80;3.50;;;;;;;;;;5031757;28;20479;-46
2023/03/10 12:40:57;;;;;;;3.90;3.60;;;;;;;;;;5031995;28;20455;-46
2023/03/10 12:43:42;;;;;;;3.53;3.23;;;;;;;;;;5031896;28;20843;-45
2023/03/10 12:46:11;;;;;;;3.57;3.27;;;;;;;;;;5032568;28;20424;-47
2023/03/10 12:48:39;;;;;;;3.60;3.30;;;;;;;;;;5031834;28;20521;-47
2023/03/10 12:51:10;;;;;;;4.03;3.73;;;;;;;;;;5031860;28;20798;-45
2023/03/10 12:53:39;;;;;;;4.37;3.97;;;;;;;;;;5031118;28;20448;-46
2023/03/10 12:56:15;;;;;;;3.93;3.30;;;;;;;;;;5031721;28;20439;-46
2023/03/10 12:58:44;;;;;;;4.07;3.60;;;;;;;;;;5031914;28;20483;-46
2023/03/10 13:01:11;;;;;;;3.43;3.13;;;;;;;;;;5031862;28;20463;-47
2023/03/10 13:03:42;;;;;;;3.73;3.43;;;;;;;;;;5031746;28;20989;-47
2023/03/10 13:06:20;;;;;;;3.83;3.53;;;;;;;;;;5032359;28;20478;-46
2023/03/10 13:08:47;;;;;;;3.67;3.37;;;;;;;;;;5032200;28;20443;-46
2023/03/10 13:11:27;;;;;;;4.30;3.90;;;;;;;;;;5032083;28;20432;-47
2023/03/10 13:13:55;;;;;;;4.27;3.87;;;;;;;;;;5031978;28;20796;-46
2023/03/10 13:16:21;;;;;;;4.13;3.80;;;;;;;;;;5031905;28;20447;-47
2023/03/10 13:18:48;;;;;;;4.70;4.13;;;;;;;;;;5031817;28;20811;-47
2023/03/10 13:21:23;;;;;;;4.77;4.37;;;;;;;;;;5031900;28;20431;-46
2023/03/10 13:23:49;;;;;;;3.70;3.40;;;;;;;;;;5032029;28;20446;-46
2023/03/10 13:26:16;;;;;;;4.77;4.37;;;;;;;;;;5031747;28;20466;-47
2023/03/10 13:28:50;;;;;;;4.07;3.67;;;;;;;;;;5031796;28;20948;-46
2023/03/10 13:31:18;;;;;;;5.43;4.60;;;;;;;;;;5031807;28;20446;-48
2023/03/10 13:33:47;;;;;;;4.80;4.40;;;;;;;;;;5031560;28;20938;-47
2023/03/10 13:36:40;;;;;;;4.63;4.23;;;;;;;;;;5031685;28;20470;-46
2023/03/10 13:39:17;;;;;;;4.73;4.33;;;;;;;;;;4995763;28;21001;-47
2023/03/10 13:41:44;;;;;;;5.00;4.60;;;;;;;;;;5031533;28;20495;-47
2023/03/10 13:44:15;;;;;;;5.40;4.90;;;;;;;;;;5031342;28;20435;-47
2023/03/10 13:46:46;;;;;;;5.73;5.03;;;;;;;;;;5031516;28;20578;-47
2023/03/10 13:49:16;;;;;;;5.63;5.13;;;;;;;;;;5031216;28;20510;-47
2023/03/10 13:51:51;;;;;;;5.97;5.13;;;;;;;;;;5031897;28;20454;-47
2023/03/10 13:54:19;;;;;;;5.37;4.87;;;;;;;;;;5031471;28;20513;-46
2023/03/10 13:56:46;;;;;;;6.00;5.50;;;;;;;;;;5031550;28;20448;-47
2023/03/10 13:59:13;;;;;;;6.10;5.60;;;;;;;;;;5031612;28;20487;-47
2023/03/10 14:01:43;;;;;;;5.87;5.37;;;;;;;;;;5031529;28;20811;-46
2023/03/10 14:04:13;;;;;;;6.13;5.57;;;;;;;;;;5032199;28;20985;-46
2023/03/10 14:06:39;;;;;;;6.80;6.13;;;;;;;;;;5035412;28;20432;-47
2023/03/10 14:09:13;;;;;;;5.93;5.43;;;;;;;;;;5035197;28;20881;-46
2023/03/10 14:11:41;;;;;;;5.80;5.30;;;;;;;;;;5035250;28;20215;-47
2023/03/10 14:14:08;;;;;;;5.73;5.23;;;;;;;;;;5035188;28;20498;-46
2023/03/10 14:16:48;;;;;;;6.00;5.47;;;;;;;;;;5035072;28;20436;-45
2023/03/10 14:19:29;;;;;;;6.17;5.57;;;;;;;;;;5034895;28;20475;-50
2023/03/10 14:21:55;;;;;;;5.90;5.40;;;;;;;;;;5034226;28;20438;-46
2023/03/10 14:24:21;;;;;;;6.20;5.60;;;;;;;;;;5034527;28;20443;-48
2023/03/10 14:26:49;;;;;;;6.10;5.50;;;;;;;;;;5034885;28;20205;-46
2023/03/10 14:29:16;;;;;;;6.40;5.87;;;;;;;;;;5034651;28;20208;-46
2023/03/10 14:31:42;;;;;;;7.07;6.27;;;;;;;;;;5034903;28;20822;-47
2023/03/10 14:34:11;;;;;;;6.57;5.97;;;;;;;;;;5034485;28;20446;-46
2023/03/10 14:36:37;;;;;;;6.67;6.07;;;;;;;;;;5034375;28;20452;-47
2023/03/10 14:39:03;;;;;;;6.40;5.80;;;;;;;;;;5034276;28;21033;-46
2023/03/10 14:41:30;;;;;;;7.13;6.50;;;;;;;;;;5034670;28;20469;-47
2023/03/10 14:43:58;;;;;;;7.53;6.83;;;;;;;;;;5034644;28;20238;-46
2023/03/10 14:46:25;;;;;;;7.20;6.50;;;;;;;;;;5034382;28;20453;-48